createdAt,value
2016-11-16T00:00:04.834Z,0
2016-11-16T00:05:03.988Z,0
2016-11-16T00:10:03.811Z,0
2016-11-16T00:15:04.384Z,0
2016-11-16T00:20:04.508Z,0
2016-11-16T00:25:04.005Z,0
2016-11-16T00:30:04.982Z,0
2016-11-16T00:35:04.189Z,0
2016-11-16T00:40:04.314Z,0
2016-11-16T00:45:04.419Z,0
2016-11-16T00:50:04.306Z,0
2016-11-16T00:55:04.514Z,0
2016-11-16T01:00:04.886Z,0
2016-11-16T01:05:04.790Z,0
2016-11-16T01:10:04.210Z,0
2016-11-16T01:15:04.173Z,0
2016-11-16T01:20:03.769Z,0
2016-11-16T01:25:04.828Z,0
2016-11-16T01:30:04.006Z,0
2016-11-16T01:35:04.301Z,0
2016-11-16T01:40:04.597Z,0
2016-11-16T01:45:04.685Z,0
2016-11-16T01:50:04.407Z,0
2016-11-16T01:55:04.631Z,0
2016-11-16T02:00:04.604Z,0
2016-11-16T02:05:03.935Z,0
2016-11-16T02:10:04.223Z,0
2016-11-16T02:15:04.511Z,0
2016-11-16T02:20:04.552Z,0
2016-11-16T02:25:04.716Z,0
2016-11-16T02:30:03.980Z,0
2016-11-16T02:35:04.045Z,0
2016-11-16T02:40:04.361Z,0
2016-11-16T02:45:04.389Z,0
2016-11-16T02:50:04.664Z,0
2016-11-16T02:55:04.899Z,0
2016-11-16T03:00:05.012Z,0
2016-11-16T03:05:07.810Z,0
2016-11-16T03:10:04.933Z,0
2016-11-16T03:15:03.994Z,0
2016-11-16T03:20:04.321Z,0
2016-11-16T03:25:04.447Z,0
2016-11-16T03:30:04.601Z,0
2016-11-16T03:35:04.961Z,0
2016-11-16T03:40:04.725Z,0
2016-11-16T03:45:04.851Z,0
2016-11-16T03:50:04.660Z,0
2016-11-16T03:55:03.966Z,0
2016-11-16T04:00:04.486Z,0
2016-11-16T04:05:05.442Z,0
2016-11-16T04:10:04.502Z,0
2016-11-16T04:15:04.471Z,0
2016-11-16T04:20:04.619Z,0
2016-11-16T04:25:04.606Z,0
2016-11-16T04:30:04.780Z,0
2016-11-16T04:35:04.845Z,0
2016-11-16T04:40:04.281Z,0
2016-11-16T04:45:04.293Z,0
2016-11-16T04:50:04.445Z,0
2016-11-16T04:55:04.244Z,0
2016-11-16T05:00:04.356Z,0
2016-11-16T05:05:04.621Z,0
2016-11-16T05:10:04.360Z,0
2016-11-16T05:15:04.705Z,0
2016-11-16T05:20:04.266Z,0
2016-11-16T05:25:04.667Z,0
2016-11-16T05:30:04.749Z,0
2016-11-16T05:35:04.604Z,0
2016-11-16T05:40:04.890Z,0
2016-11-16T05:45:04.593Z,0
2016-11-16T05:50:04.560Z,0
2016-11-16T05:55:04.976Z,0
2016-11-16T06:00:04.173Z,0
2016-11-16T06:05:04.386Z,0
2016-11-16T06:10:04.036Z,0
2016-11-16T06:15:04.093Z,0
2016-11-16T06:20:04.415Z,0
2016-11-16T06:25:04.270Z,1
2016-11-16T06:30:04.869Z,2
2016-11-16T06:35:04.909Z,4
2016-11-16T06:40:03.994Z,6
2016-11-16T06:45:04.612Z,10
2016-11-16T06:50:04.987Z,24
2016-11-16T06:55:04.702Z,25
2016-11-16T07:00:04.259Z,37
2016-11-16T07:05:04.031Z,51
2016-11-16T07:10:03.983Z,54
2016-11-16T07:15:04.627Z,58
2016-11-16T07:20:04.742Z,61
2016-11-16T07:25:04.548Z,191
2016-11-16T07:30:03.894Z,278
2016-11-16T07:35:04.415Z,262
2016-11-16T07:40:04.020Z,204
2016-11-16T07:45:04.330Z,278
2016-11-16T07:50:04.356Z,379
2016-11-16T07:55:04.891Z,439
2016-11-16T08:00:03.991Z,533
2016-11-16T08:05:03.879Z,408
2016-11-16T08:10:04.166Z,514
2016-11-16T08:15:04.583Z,481
2016-11-16T08:20:04.607Z,425
2016-11-16T08:25:04.660Z,519
2016-11-16T08:30:04.682Z,476
2016-11-16T08:35:04.362Z,598
2016-11-16T08:40:04.708Z,609
2016-11-16T08:45:04.315Z,627
2016-11-16T08:50:04.733Z,681
2016-11-16T08:55:04.166Z,933
2016-11-16T09:00:04.607Z,1000
2016-11-16T09:05:03.860Z,1000
2016-11-16T09:10:04.278Z,1000
2016-11-16T09:15:04.748Z,1000
2016-11-16T09:20:04.384Z,1000
2016-11-16T09:25:04.609Z,830
2016-11-16T09:30:04.707Z,933
2016-11-16T09:35:03.832Z,1000
2016-11-16T09:40:04.876Z,1000
2016-11-16T09:45:04.538Z,1000
2016-11-16T09:50:04.092Z,2000
2016-11-16T09:55:04.465Z,1000
2016-11-16T10:00:04.732Z,1000
2016-11-16T10:05:04.564Z,1000
2016-11-16T10:10:05.037Z,933
2016-11-16T10:15:04.753Z,869
2016-11-16T10:20:04.550Z,2000
2016-11-16T10:25:04.538Z,1000
2016-11-16T10:30:04.005Z,2000
2016-11-16T10:35:04.293Z,1000
2016-11-16T10:40:03.843Z,1000
2016-11-16T10:45:04.381Z,1000
2016-11-16T10:50:04.300Z,3000
2016-11-16T10:55:04.751Z,6000
2016-11-16T11:00:04.218Z,6000
2016-11-16T11:05:04.951Z,4000
2016-11-16T11:10:03.895Z,3000
2016-11-16T11:15:04.801Z,8000
2016-11-16T11:20:04.427Z,10000
2016-11-16T11:25:04.323Z,3000
2016-11-16T11:30:04.093Z,5000
2016-11-16T11:35:04.172Z,7000
2016-11-16T11:40:04.049Z,8000
2016-11-16T11:45:04.263Z,8000
2016-11-16T11:50:04.635Z,10000
2016-11-16T11:55:03.912Z,7000
2016-11-16T12:00:04.751Z,5000
2016-11-16T12:05:04.295Z,3000
2016-11-16T12:10:04.073Z,8000
2016-11-16T12:15:04.695Z,8000
2016-11-16T12:20:04.029Z,8000
2016-11-16T12:25:04.507Z,5000
2016-11-16T12:30:05.069Z,1000
2016-11-16T12:35:04.406Z,2000
2016-11-16T12:40:04.693Z,4000
2016-11-16T12:45:04.765Z,3000
2016-11-16T12:50:04.552Z,3000
2016-11-16T12:55:04.839Z,3000
2016-11-16T13:00:04.151Z,5000
2016-11-16T13:05:04.867Z,5000
2016-11-16T13:10:04.382Z,4000
2016-11-16T13:15:04.670Z,4000
2016-11-16T13:20:04.704Z,4000
2016-11-16T13:25:04.035Z,4000
2016-11-16T13:30:04.794Z,4000
2016-11-16T13:35:04.874Z,5000
2016-11-16T13:40:04.656Z,4000
2016-11-16T13:45:03.956Z,4000
2016-11-16T13:50:04.078Z,3000
2016-11-16T13:55:04.189Z,4000
2016-11-16T14:00:04.600Z,4000
2016-11-16T14:05:04.809Z,3000
2016-11-16T14:10:04.323Z,4000
2016-11-16T14:15:04.694Z,3000
2016-11-16T14:20:04.676Z,6000
2016-11-16T14:25:05.090Z,3000
2016-11-16T14:30:04.136Z,2000
2016-11-16T14:35:04.273Z,2000
2016-11-16T14:40:04.420Z,2000
2016-11-16T14:45:03.694Z,1000
2016-11-16T14:50:04.138Z,1000
2016-11-16T14:55:04.456Z,1000
2016-11-16T15:00:04.878Z,1000
2016-11-16T15:05:03.957Z,1000
2016-11-16T15:10:04.896Z,830
2016-11-16T15:15:03.920Z,728
2016-11-16T15:20:03.841Z,628
2016-11-16T15:25:04.044Z,463
2016-11-16T15:30:04.696Z,332
2016-11-16T15:35:04.315Z,199
2016-11-16T15:40:04.014Z,118
2016-11-16T15:45:04.317Z,69
2016-11-16T15:50:04.657Z,65
2016-11-16T15:55:04.227Z,52
2016-11-16T16:00:04.487Z,59
2016-11-16T16:05:04.531Z,23
2016-11-16T16:10:03.962Z,10
2016-11-16T16:15:04.271Z,4
2016-11-16T16:20:04.853Z,0
2016-11-16T16:25:04.081Z,0
2016-11-16T16:30:04.776Z,0
2016-11-16T16:35:04.750Z,0
2016-11-16T16:40:04.523Z,0
2016-11-16T16:45:04.728Z,0
2016-11-16T16:50:04.544Z,0
2016-11-16T16:55:04.791Z,0
2016-11-16T17:00:04.997Z,0
2016-11-16T17:05:04.518Z,0
2016-11-16T17:10:04.588Z,0
2016-11-16T17:15:04.524Z,0
2016-11-16T17:20:04.480Z,0
2016-11-16T17:25:04.324Z,0
2016-11-16T17:30:03.735Z,0
2016-11-16T17:35:05.021Z,0
2016-11-16T17:40:04.297Z,0
2016-11-16T17:45:04.966Z,0
2016-11-16T17:50:04.153Z,0
2016-11-16T17:55:04.684Z,0
2016-11-16T18:00:04.054Z,0
2016-11-16T18:05:04.702Z,0
2016-11-16T18:10:04.635Z,0
2016-11-16T18:15:04.347Z,0
2016-11-16T18:20:03.792Z,0
2016-11-16T18:25:04.717Z,0
2016-11-16T18:30:04.417Z,0
2016-11-16T18:35:04.116Z,0
2016-11-16T18:40:04.003Z,0
2016-11-16T18:45:04.637Z,0
2016-11-16T18:50:04.723Z,0
2016-11-16T18:55:04.290Z,0
2016-11-16T19:00:03.984Z,0
2016-11-16T19:05:04.546Z,0
2016-11-16T19:10:04.125Z,0
2016-11-16T19:15:04.561Z,0
2016-11-16T19:20:04.380Z,0
2016-11-16T19:25:04.887Z,0
2016-11-16T19:30:04.583Z,0
2016-11-16T19:35:04.208Z,0
2016-11-16T19:40:04.039Z,0
2016-11-16T19:45:04.561Z,0
2016-11-16T19:50:03.949Z,0
2016-11-16T19:55:04.889Z,0
2016-11-16T20:00:04.313Z,0
2016-11-16T20:05:04.522Z,0
2016-11-16T20:10:04.313Z,0
2016-11-16T20:15:04.622Z,0
2016-11-16T20:20:04.199Z,0
2016-11-16T20:25:04.161Z,0
2016-11-16T20:30:04.219Z,0
2016-11-16T20:35:04.114Z,0
2016-11-16T20:40:03.955Z,0
2016-11-16T20:45:04.425Z,0
2016-11-16T20:50:03.912Z,0
2016-11-16T20:55:04.007Z,0
2016-11-16T21:00:04.237Z,0
2016-11-16T21:05:04.846Z,0
2016-11-16T21:10:04.481Z,0
2016-11-16T21:15:04.574Z,0
2016-11-16T21:20:04.379Z,0
2016-11-16T21:25:04.742Z,0
2016-11-16T21:30:04.204Z,0
2016-11-16T21:35:04.787Z,0
2016-11-16T21:40:04.862Z,0
2016-11-16T21:45:03.927Z,0
2016-11-16T21:50:04.630Z,0
2016-11-16T21:55:04.622Z,0
2016-11-16T22:00:04.826Z,0
2016-11-16T22:05:04.153Z,0
2016-11-16T22:10:04.768Z,0
2016-11-16T22:15:04.405Z,0
2016-11-16T22:20:04.883Z,0
2016-11-16T22:25:03.979Z,0
2016-11-16T22:30:04.680Z,0
2016-11-16T22:35:04.826Z,0
2016-11-16T22:40:04.466Z,0
2016-11-16T22:45:03.892Z,0
2016-11-16T22:50:04.008Z,0
2016-11-16T22:55:04.137Z,0
2016-11-16T23:00:04.109Z,0
2016-11-16T23:05:04.525Z,0
2016-11-16T23:10:03.916Z,0
2016-11-16T23:15:04.066Z,0
2016-11-16T23:20:04.062Z,0
2016-11-16T23:25:03.988Z,0
2016-11-16T23:30:04.018Z,0
2016-11-16T23:35:04.864Z,0
2016-11-16T23:40:03.990Z,0
2016-11-16T23:45:04.114Z,0
2016-11-16T23:50:03.850Z,0
2016-11-16T23:55:04.628Z,0
